Time;durP1;ratioP1;P1;durP2;ratioP2;P2;SDS_P1;SDS_P2;PMS_P1;PMS_P2;Temp;Humidity;BMP_temperature;BMP_pressure;BME280_temperature;BME280_humidity;BME280_pressure;Samples;Min_cycle;Max_cycle;Signal;HPM_P1;HPM_P2
2023/07/02 00:00:42;;;;;;;19.58;14.30;;;;;;;19.87;69.52;99127.88;5134143;27;20260;-71
2023/07/02 00:03:11;;;;;;;23.02;13.73;;;;;;;19.83;69.73;99126.41;5134205;27;20203;-74
2023/07/02 00:05:40;;;;;;;19.42;14.07;;;;;;;19.79;69.54;99112.69;5132295;27;20222;-71
2023/07/02 00:08:08;;;;;;;20.77;14.23;;;;;;;19.81;69.56;99123.91;5138098;27;20203;-71
2023/07/02 00:10:36;;;;;;;25.65;15.23;;;;;;;19.77;69.37;99118.03;5133897;27;20226;-71
2023/07/02 00:13:04;;;;;;;19.88;14.10;;;;;;;19.81;69.94;99112.59;5131132;27;20573;-72
2023/07/02 00:15:32;;;;;;;22.85;14.13;;;;;;;19.79;69.72;99116.13;5132304;27;20203;-71
2023/07/02 00:18:00;;;;;;;19.40;15.20;;;;;;;19.76;69.78;99111.09;5132710;27;20201;-71
2023/07/02 00:20:34;;;;;;;16.48;12.93;;;;;;;19.75;70.10;99119.88;5130834;27;20783;-71
2023/07/02 00:23:03;;;;;;;17.10;14.07;;;;;;;19.73;69.74;99121.75;5126255;27;20258;-71
2023/07/02 00:25:31;;;;;;;18.50;14.57;;;;;;;19.72;69.74;99116.63;5122471;27;20215;-70
2023/07/02 00:27:59;;;;;;;18.50;15.27;;;;;;;19.69;70.03;99109.81;5131109;27;20199;-71
2023/07/02 00:30:27;;;;;;;19.35;13.90;;;;;;;19.64;70.27;99103.22;5122531;27;20199;-72
2023/07/02 00:32:56;;;;;;;18.40;14.73;;;;;;;19.60;70.32;99102.56;5131172;27;20206;-72
2023/07/02 00:35:24;;;;;;;19.80;14.93;;;;;;;19.58;70.23;99112.25;5130677;27;20622;-72
2023/07/02 00:37:53;;;;;;;20.00;15.45;;;;;;;19.56;70.72;99114.13;5129198;27;20209;-71
2023/07/02 00:40:21;;;;;;;20.38;14.77;;;;;;;19.53;70.44;99112.53;5130473;27;20255;-75
2023/07/02 00:42:49;;;;;;;19.17;14.52;;;;;;;19.50;70.86;99115.34;5141141;27;20561;-70
2023/07/02 00:45:17;;;;;;;16.85;14.15;;;;;;;19.49;70.84;99112.84;5131588;27;20648;-71
2023/07/02 00:47:46;;;;;;;20.58;15.25;;;;;;;19.47;70.58;99109.47;5131059;27;20232;-71
2023/07/02 00:50:14;;;;;;;17.40;13.93;;;;;;;19.42;70.68;99106.31;5127180;27;20239;-71
2023/07/02 00:52:43;;;;;;;17.10;14.20;;;;;;;19.42;70.70;99117.63;5131583;27;20207;-70
2023/07/02 00:55:12;;;;;;;17.92;14.95;;;;;;;19.40;71.11;99102.97;5128962;27;20238;-71
2023/07/02 00:57:40;;;;;;;17.02;14.10;;;;;;;19.39;70.69;99106.50;5126712;27;20700;-70
2023/07/02 01:00:10;;;;;;;18.33;15.20;;;;;;;19.38;70.64;99110.06;5133080;27;20302;-72
2023/07/02 01:02:38;;;;;;;19.20;14.35;;;;;;;19.36;71.19;99101.47;5122083;27;20203;-71
2023/07/02 01:05:06;;;;;;;19.13;15.18;;;;;;;19.34;70.97;99103.38;5123166;27;20579;-70
2023/07/02 01:07:34;;;;;;;17.95;15.02;;;;;;;19.32;71.34;99098.22;5131568;27;20207;-71
2023/07/02 01:10:02;;;;;;;20.55;16.15;;;;;;;19.30;71.26;99095.72;5132252;28;20310;-72
2023/07/02 01:12:32;;;;;;;20.08;15.25;;;;;;;19.27;71.18;99090.69;5132537;27;20199;-71
2023/07/02 01:15:03;;;;;;;19.95;14.57;;;;;;;19.24;71.12;99088.25;5136248;27;20598;-71
2023/07/02 01:17:39;;;;;;;24.55;16.58;;;;;;;19.23;71.58;99090.97;5136147;27;20248;-73
2023/07/02 01:20:11;;;;;;;18.73;16.02;;;;;;;19.22;71.23;99100.59;5133601;27;20253;-71
2023/07/02 01:22:39;;;;;;;17.40;15.27;;;;;;;19.18;71.47;99093.00;5135948;27;20207;-71
2023/07/02 01:25:08;;;;;;;17.95;14.48;;;;;;;19.17;71.46;99097.41;5141699;27;20580;-73
2023/07/02 01:27:37;;;;;;;19.30;15.57;;;;;;;19.12;71.61;99086.41;5136050;27;20195;-72
2023/07/02 01:30:06;;;;;;;17.35;14.57;;;;;;;19.10;71.86;99084.81;5133965;27;20295;-70
2023/07/02 01:32:35;;;;;;;17.63;14.95;;;;;;;19.07;71.68;99080.63;5133572;27;20658;-70
2023/07/02 01:35:04;;;;;;;19.88;14.80;;;;;;;19.03;71.85;99081.75;5135011;27;20302;-71
2023/07/02 01:37:37;;;;;;;18.83;14.65;;;;;;;19.01;71.96;99083.63;5127813;27;20657;-71
2023/07/02 01:40:07;;;;;;;17.88;15.52;;;;;;;19.00;72.19;99080.19;5136275;27;20857;-71
2023/07/02 01:42:35;;;;;;;17.75;14.45;;;;;;;19.01;72.22;99073.19;5135544;27;20696;-71
2023/07/02 01:45:04;;;;;;;18.77;15.15;;;;;;;19.01;72.39;99074.03;5135357;27;20207;-71
2023/07/02 01:47:33;;;;;;;19.65;15.10;;;;;;;19.01;72.03;99075.81;5136094;27;20199;-71
2023/07/02 01:50:01;;;;;;;19.77;15.43;;;;;;;19.00;72.12;99076.72;5134199;27;20196;-70
2023/07/02 01:52:32;;;;;;;19.38;15.10;;;;;;;19.03;72.23;99069.53;5134452;27;20196;-69
2023/07/02 01:55:03;;;;;;;19.17;15.65;;;;;;;19.05;71.92;99074.69;5129923;27;20199;-72
2023/07/02 01:57:31;;;;;;;19.73;16.08;;;;;;;19.05;72.00;99074.69;5133226;27;20233;-69
2023/07/02 01:59:59;;;;;;;17.23;14.38;;;;;;;18.99;72.16;99054.16;5134553;27;20230;-69
2023/07/02 02:02:27;;;;;;;20.60;15.43;;;;;;;19.09;71.67;99072.72;5134292;27;20200;-71
2023/07/02 02:04:56;;;;;;;17.98;15.25;;;;;;;19.09;71.69;99070.94;5133687;27;20583;-70
2023/07/02 02:07:25;;;;;;;19.33;14.52;;;;;;;19.06;71.48;99068.50;5127809;27;20759;-70
2023/07/02 02:09:54;;;;;;;19.83;15.07;;;;;;;19.07;71.54;99070.19;5131669;27;20188;-70
2023/07/02 02:12:23;;;;;;;16.70;14.73;;;;;;;19.08;71.55;99066.66;5137613;27;20307;-70
2023/07/02 02:14:51;;;;;;;17.10;14.85;;;;;;;19.08;71.40;99071.88;5131389;27;20210;-71
2023/07/02 02:17:19;;;;;;;17.42;14.07;;;;;;;19.09;71.36;99067.50;5135094;27;20202;-69
2023/07/02 02:19:47;;;;;;;18.48;14.48;;;;;;;19.06;71.20;99060.69;5133057;27;20203;-70
2023/07/02 02:22:15;;;;;;;16.40;14.45;;;;;;;19.03;71.38;99063.47;5133543;27;20615;-70
2023/07/02 02:24:43;;;;;;;16.85;14.50;;;;;;;19.00;71.54;99059.31;5130755;27;20256;-70
2023/07/02 02:27:12;;;;;;;19.23;15.10;;;;;;;18.99;71.37;99062.00;5132913;27;20540;-71
2023/07/02 02:29:42;;;;;;;17.20;14.27;;;;;;;18.97;71.62;99063.88;5115905;27;20195;-70
2023/07/02 02:32:10;;;;;;;18.90;13.00;;;;;;;18.97;71.68;99064.72;5139808;27;20202;-69
2023/07/02 02:34:38;;;;;;;19.48;14.45;;;;;;;18.98;71.49;99061.16;5132393;27;20199;-69
2023/07/02 02:37:06;;;;;;;19.50;14.82;;;;;;;18.99;71.41;99062.00;5134199;27;20570;-71
2023/07/02 02:39:34;;;;;;;16.60;13.65;;;;;;;18.98;71.34;99057.72;5132931;27;20602;-69
2023/07/02 02:42:02;;;;;;;18.15;13.60;;;;;;;18.97;71.50;99056.88;5133332;27;20227;-70
2023/07/02 02:44:32;;;;;;;17.10;13.65;;;;;;;18.98;71.14;99060.31;5132324;27;20211;-72
2023/07/02 02:47:01;;;;;;;18.20;13.68;;;;;;;18.98;71.16;99055.94;5129749;27;20618;-72
2023/07/02 02:49:29;;;;;;;16.75;13.85;;;;;;;18.98;71.09;99061.16;5129942;27;20207;-71
2023/07/02 02:51:57;;;;;;;18.65;14.38;;;;;;;18.99;71.15;99059.38;5133392;27;20248;-72
2023/07/02 02:54:25;;;;;;;16.35;12.88;;;;;;;19.02;70.88;99062.63;5133060;27;20215;-70
2023/07/02 02:56:53;;;;;;;16.27;13.30;;;;;;;19.02;70.72;99062.63;5130219;27;20214;-72
2023/07/02 02:59:21;;;;;;;16.17;13.40;;;;;;;19.00;70.79;99054.09;5129353;27;20206;-72
2023/07/02 03:01:51;;;;;;;18.15;13.50;;;;;;;19.03;70.56;99056.47;5135606;27;20234;-71
2023/07/02 03:04:24;;;;;;;19.60;13.73;;;;;;;19.04;70.24;99054.72;5135979;27;20209;-71
2023/07/02 03:06:53;;;;;;;16.17;13.45;;;;;;;19.04;70.46;99049.50;5133055;27;20246;-72
2023/07/02 03:09:21;;;;;;;16.70;12.32;;;;;;;19.03;70.34;99048.63;5136430;27;20199;-71
2023/07/02 03:11:49;;;;;;;16.63;12.55;;;;;;;19.07;70.17;99054.50;5133942;27;20635;-71
2023/07/02 03:14:17;;;;;;;16.67;12.68;;;;;;;19.09;70.17;99046.59;5129418;27;20269;-71
2023/07/02 03:16:46;;;;;;;17.38;12.88;;;;;;;19.11;70.11;99045.59;5135550;27;20610;-64
2023/07/02 03:19:15;;;;;;;15.07;12.77;;;;;;;19.13;69.88;99040.25;5132169;27;20252;-64
2023/07/02 03:21:45;;;;;;;14.40;12.07;;;;;;;19.17;69.24;99052.16;5132732;27;20264;-64
2023/07/02 03:24:14;;;;;;;21.20;13.25;;;;;;;19.16;69.20;99047.91;5131091;27;20216;-63
2023/07/02 03:26:42;;;;;;;14.02;11.77;;;;;;;19.14;69.30;99049.75;5130489;27;20203;-63
2023/07/02 03:29:11;;;;;;;15.55;12.02;;;;;;;19.11;69.13;99044.72;5127380;27;20294;-63
2023/07/02 03:31:39;;;;;;;12.55;11.20;;;;;;;19.16;68.81;99047.91;5126381;27;20249;-63
2023/07/02 03:34:09;;;;;;;15.10;11.43;;;;;;;19.15;68.66;99044.44;5130369;27;20199;-62
2023/07/02 03:36:39;;;;;;;13.93;11.40;;;;;;;19.16;68.50;99047.91;5130954;27;20218;-63
2023/07/02 03:39:09;;;;;;;15.10;11.77;;;;;;;19.19;68.27;99047.72;5132019;27;20239;-63
2023/07/02 03:41:37;;;;;;;15.32;11.00;;;;;;;19.20;68.32;99049.38;5130598;27;20211;-63
2023/07/02 03:44:06;;;;;;;14.27;11.73;;;;;;;19.20;67.62;99046.75;5133025;27;20203;-63
2023/07/02 03:46:34;;;;;;;13.68;11.23;;;;;;;19.22;68.08;99042.25;5130952;27;20195;-63
2023/07/02 03:49:03;;;;;;;13.80;11.43;;;;;;;19.25;67.63;99048.13;5126736;27;20227;-63
2023/07/02 03:51:32;;;;;;;12.43;10.95;;;;;;;19.23;67.63;99044.81;5131012;27;20206;-62
2023/07/02 03:54:00;;;;;;;13.32;11.65;;;;;;;19.29;67.36;99047.03;5131928;27;20200;-63
2023/07/02 03:56:29;;;;;;;12.98;10.32;;;;;;;19.31;67.34;99052.16;5130222;27;20203;-64
2023/07/02 03:58:57;;;;;;;12.60;10.90;;;;;;;19.31;67.08;99042.53;5131412;27;20231;-64
2023/07/02 04:01:25;;;;;;;20.02;11.77;;;;;;;19.35;67.06;99043.19;5129608;27;20230;-63
2023/07/02 04:03:55;;;;;;;14.00;10.95;;;;;;;19.39;66.74;99043.81;5128074;27;20200;-63
2023/07/02 04:06:23;;;;;;;13.10;10.18;;;;;;;19.41;66.24;99044.56;5130549;27;20199;-63
2023/07/02 04:08:51;;;;;;;12.32;10.32;;;;;;;19.39;65.99;99033.38;5131688;27;20538;-64
2023/07/02 04:11:19;;;;;;;13.95;10.50;;;;;;;19.40;65.91;99037.66;5131512;27;20203;-63
2023/07/02 04:13:49;;;;;;;11.85;10.25;;;;;;;19.43;66.08;99034.84;5133806;27;20215;-64
2023/07/02 04:16:17;;;;;;;14.27;10.38;;;;;;;19.44;65.77;99034.78;5133338;27;20614;-63
2023/07/02 04:18:45;;;;;;;14.52;10.00;;;;;;;19.46;65.53;99029.44;5129274;27;20628;-63
2023/07/02 04:21:13;;;;;;;11.55;10.00;;;;;;;19.49;65.48;99034.47;5126054;27;20215;-64
2023/07/02 04:23:41;;;;;;;10.85;9.75;;;;;;;19.48;65.46;99022.34;5129940;27;20199;-63
2023/07/02 04:26:10;;;;;;;10.43;9.32;;;;;;;19.52;65.01;99026.44;5130457;27;20201;-64
2023/07/02 04:28:59;;;;;;;13.43;10.40;;;;;;;19.55;64.84;99036.66;5118164;27;20202;-64
2023/07/02 04:31:27;;;;;;;10.00;8.85;;;;;;;19.58;65.06;99027.78;5129938;27;20624;-65
2023/07/02 04:33:55;;;;;;;11.75;9.88;;;;;;;19.60;64.98;99032.00;5128748;27;20224;-64
2023/07/02 04:36:23;;;;;;;20.05;10.82;;;;;;;19.63;64.81;99031.84;5120054;27;20225;-63
2023/07/02 04:38:51;;;;;;;11.43;9.57;;;;;;;19.66;64.25;99030.78;5127720;27;21761;-63
2023/07/02 04:41:20;;;;;;;10.63;9.07;;;;;;;19.66;64.59;99042.09;5131083;27;20635;-62
2023/07/02 04:43:48;;;;;;;11.35;10.00;;;;;;;19.65;64.35;99042.16;5131393;27;20203;-63
2023/07/02 04:46:18;;;;;;;11.43;9.27;;;;;;;19.69;64.15;99044.47;5130999;27;20238;-63
2023/07/02 04:48:46;;;;;;;13.57;9.95;;;;;;;19.68;64.00;99045.44;5129333;27;20236;-63
2023/07/02 04:51:15;;;;;;;10.77;9.23;;;;;;;19.74;63.49;99054.66;5130375;27;20203;-63
2023/07/02 04:53:43;;;;;;;11.70;8.85;;;;;;;19.75;63.55;99051.94;5125743;27;20222;-63
2023/07/02 04:56:11;;;;;;;10.50;9.05;;;;;;;19.76;63.02;99050.97;5123956;27;20206;-64
2023/07/02 04:58:39;;;;;;;11.30;8.60;;;;;;;19.78;62.98;99050.91;5129107;27;20309;-63
2023/07/02 05:01:07;;;;;;;12.15;8.45;;;;;;;19.79;62.69;99050.78;5131033;27;20768;-63
2023/07/02 05:03:38;;;;;;;10.23;8.55;;;;;;;19.81;62.08;99049.84;5125256;27;20624;-64
2023/07/02 05:06:06;;;;;;;10.73;8.50;;;;;;;19.83;61.76;99055.81;5132346;28;20207;-65
2023/07/02 05:08:36;;;;;;;9.25;8.23;;;;;;;19.88;61.96;99045.88;5125617;27;20207;-65
2023/07/02 05:11:04;;;;;;;9.77;8.10;;;;;;;19.93;61.09;99049.88;5130652;27;20294;-65
2023/07/02 05:13:32;;;;;;;10.27;7.82;;;;;;;19.98;60.18;99047.81;5129276;27;20281;-63
2023/07/02 05:16:00;;;;;;;8.80;7.90;;;;;;;20.01;59.58;99049.38;5133443;27;20195;-62
2023/07/02 05:18:28;;;;;;;16.13;7.38;;;;;;;20.05;58.34;99053.47;5126606;27;20203;-64
2023/07/02 05:20:57;;;;;;;9.50;7.15;;;;;;;20.11;58.49;99057.47;5131247;27;20295;-65
2023/07/02 05:23:25;;;;;;;8.63;7.10;;;;;;;20.13;58.06;99056.41;5130424;27;20226;-64
2023/07/02 05:25:53;;;;;;;8.32;6.78;;;;;;;20.13;57.76;99056.41;5131912;27;20257;-64
2023/07/02 05:28:21;;;;;;;8.32;6.68;;;;;;;20.18;57.71;99058.72;5132827;27;20680;-64
2023/07/02 05:30:49;;;;;;;10.10;6.68;;;;;;;20.21;56.84;99053.28;5129554;28;20211;-63
2023/07/02 05:33:18;;;;;;;10.95;6.43;;;;;;;20.24;56.80;99048.66;5130812;27;20571;-63
2023/07/02 05:35:47;;;;;;;8.63;6.85;;;;;;;20.23;56.09;99052.25;5129501;27;20238;-63
2023/07/02 05:38:18;;;;;;;7.35;5.95;;;;;;;20.22;55.99;99050.56;5122943;27;20219;-62
2023/07/02 05:40:46;;;;;;;9.43;6.00;;;;;;;20.24;55.89;99053.91;5129923;27;20199;-64
2023/07/02 05:43:15;;;;;;;7.20;6.30;;;;;;;20.30;55.71;99062.31;5130367;27;20259;-65
2023/07/02 05:45:43;;;;;;;8.73;5.90;;;;;;;20.34;54.99;99051.50;5128139;27;20199;-64
2023/07/02 05:48:11;;;;;;;8.82;6.30;;;;;;;20.41;55.13;99059.78;5120933;27;20450;-64
2023/07/02 05:50:39;;;;;;;6.47;5.30;;;;;;;20.46;55.28;99057.69;5128959;27;20311;-64
2023/07/02 05:53:09;;;;;;;8.60;6.20;;;;;;;20.48;55.25;99059.28;5127812;27;20200;-63
2023/07/02 05:55:38;;;;;;;8.27;5.95;;;;;;;20.50;54.81;99061.81;5130262;27;20199;-65
2023/07/02 05:58:07;;;;;;;10.38;6.38;;;;;;;20.52;54.87;99065.16;5130438;27;20203;-64
2023/07/02 06:00:35;;;;;;;11.63;6.07;;;;;;;20.51;54.62;99058.25;5131405;27;20298;-65
2023/07/02 06:03:03;;;;;;;8.20;5.97;;;;;;;20.57;54.82;99063.06;5130625;27;20694;-63
2023/07/02 06:05:31;;;;;;;7.43;6.15;;;;;;;20.56;54.83;99053.53;5132136;27;20199;-64
2023/07/02 06:07:59;;;;;;;9.63;6.13;;;;;;;20.56;55.00;99061.41;5133245;27;20203;-63
2023/07/02 06:10:27;;;;;;;6.90;6.22;;;;;;;20.62;55.08;99065.34;5132859;27;20294;-65
2023/07/02 06:12:57;;;;;;;8.68;6.30;;;;;;;20.64;54.59;99066.09;5134685;27;20278;-64
2023/07/02 06:15:25;;;;;;;6.53;5.80;;;;;;;20.68;54.63;99068.41;5133599;27;20211;-64
2023/07/02 06:17:53;;;;;;;8.57;6.57;;;;;;;20.72;54.83;99063.78;5131640;27;20207;-64
2023/07/02 06:20:21;;;;;;;8.57;5.95;;;;;;;20.72;54.80;99069.03;5133013;27;20214;-63
2023/07/02 06:22:49;;;;;;;8.82;5.90;;;;;;;20.73;54.97;99070.72;5125444;27;20213;-66
2023/07/02 06:25:17;;;;;;;8.10;6.40;;;;;;;20.80;55.26;99077.19;5134590;27;20226;-65
2023/07/02 06:27:45;;;;;;;6.95;6.25;;;;;;;20.80;54.98;99073.72;5131984;27;20604;-63
2023/07/02 06:30:15;;;;;;;10.32;6.40;;;;;;;20.78;55.33;99073.84;5127892;27;20203;-66
2023/07/02 06:32:43;;;;;;;7.80;5.97;;;;;;;20.77;55.63;99076.53;5130918;27;20203;-65
2023/07/02 06:35:12;;;;;;;9.27;5.80;;;;;;;20.76;55.75;99078.34;5134164;27;20696;-66
2023/07/02 06:37:40;;;;;;;8.95;6.20;;;;;;;20.82;55.78;99079.72;5138081;27;20988;-66
2023/07/02 06:40:09;;;;;;;6.70;6.10;;;;;;;20.93;55.80;99075.38;5122226;27;20235;-66
2023/07/02 06:42:37;;;;;;;8.60;6.20;;;;;;;21.10;55.32;99076.84;5127485;27;20226;-66
2023/07/02 06:45:06;;;;;;;7.82;5.60;;;;;;;21.44;55.08;99082.34;5133407;27;20611;-65
2023/07/02 06:47:35;;;;;;;8.43;6.15;;;;;;;21.68;54.37;99075.28;5127158;27;20571;-66
2023/07/02 06:50:04;;;;;;;8.50;6.50;;;;;;;21.76;54.09;99072.13;5126603;27;20243;-66
2023/07/02 06:52:32;;;;;;;8.27;6.25;;;;;;;21.69;53.98;99074.38;5131961;27;20537;-66
2023/07/02 06:54:59;;;;;;;9.82;5.90;;;;;;;21.60;54.61;99069.78;5127094;27;20614;-66
2023/07/02 06:57:28;;;;;;;7.10;6.35;;;;;;;21.58;55.05;99082.19;5127401;27;20222;-66
2023/07/02 06:59:59;;;;;;;10.23;5.95;;;;;;;21.63;55.21;99082.66;5132515;27;20203;-66
2023/07/02 07:02:28;;;;;;;7.93;6.13;;;;;;;21.75;55.05;99086.19;5125571;27;20252;-66
2023/07/02 07:04:57;;;;;;;9.10;5.63;;;;;;;21.67;54.94;99083.28;5129295;27;20203;-66
2023/07/02 07:07:26;;;;;;;6.78;5.25;;;;;;;21.68;55.47;99085.78;5135882;27;20207;-66
2023/07/02 07:09:54;;;;;;;6.53;5.18;;;;;;;21.69;55.39;99087.47;5129415;27;20599;-66
2023/07/02 07:12:22;;;;;;;8.38;5.40;;;;;;;21.60;55.99;99090.75;5128658;27;20272;-66
2023/07/02 07:14:50;;;;;;;9.13;5.68;;;;;;;21.53;56.16;99092.13;5130855;27;20206;-62
2023/07/02 07:17:18;;;;;;;6.75;5.13;;;;;;;21.50;56.38;99097.59;5131546;27;20202;-70
2023/07/02 07:19:46;;;;;;;7.95;5.18;;;;;;;21.43;57.25;99099.00;5125333;27;20609;-69
2023/07/02 07:22:16;;;;;;;10.90;4.90;;;;;;;21.32;58.50;99101.50;5131349;27;20239;-72
2023/07/02 07:24:44;;;;;;;12.30;4.60;;;;;;;21.16;59.50;99093.91;5111763;27;20219;-70
2023/07/02 07:27:12;;;;;;;7.63;4.97;;;;;;;21.08;61.00;99099.69;5135858;27;20288;-70
2023/07/02 07:29:40;;;;;;;5.88;4.40;;;;;;;20.91;61.90;99110.47;5132644;27;20195;-71
2023/07/02 07:32:09;;;;;;;5.03;4.20;;;;;;;20.87;62.48;99109.84;5131845;27;20260;-69
2023/07/02 07:34:37;;;;;;;4.78;4.18;;;;;;;20.86;62.35;99113.41;5131785;27;20207;-70
2023/07/02 07:37:06;;;;;;;7.47;4.32;;;;;;;20.92;61.90;99115.63;5126246;27;20211;-71
2023/07/02 07:39:37;;;;;;;6.78;4.68;;;;;;;21.01;61.99;99116.75;5134424;27;20227;-69
2023/07/02 07:42:06;;;;;;;6.22;4.45;;;;;;;21.07;61.88;99115.50;5133860;27;20200;-69
2023/07/02 07:44:34;;;;;;;7.63;4.72;;;;;;;21.05;61.85;99123.47;5137240;27;20218;-70
2023/07/02 07:47:02;;;;;;;5.20;4.07;;;;;;;20.98;62.14;99130.06;5132687;27;20215;-69
2023/07/02 07:49:31;;;;;;;4.65;3.40;;;;;;;20.93;62.19;99119.06;5134644;27;20605;-70
2023/07/02 07:51:59;;;;;;;4.68;4.20;;;;;;;20.90;62.70;99114.03;5134308;27;20286;-70
2023/07/02 07:54:27;;;;;;;4.38;3.38;;;;;;;20.75;62.92;99126.41;5130964;27;20191;-69
2023/07/02 07:56:56;;;;;;;5.70;3.47;;;;;;;20.66;63.58;99132.28;5126891;27;20594;-69
2023/07/02 07:59:24;;;;;;;4.85;3.80;;;;;;;20.60;64.24;99128.28;5134285;27;20195;-67
2023/07/02 08:01:52;;;;;;;4.40;3.63;;;;;;;20.58;64.91;99124.91;5128679;27;20212;-69
2023/07/02 08:04:20;;;;;;;4.25;3.85;;;;;;;20.65;64.44;99126.19;5131588;27;20219;-69
2023/07/02 08:06:49;;;;;;;6.90;4.43;;;;;;;20.72;64.49;99121.38;5133648;27;20199;-70
2023/07/02 08:09:16;;;;;;;5.43;4.28;;;;;;;20.71;64.38;99117.09;5129021;27;20559;-68
2023/07/02 08:11:45;;;;;;;6.95;4.40;;;;;;;20.70;64.26;99129.34;5108341;27;20273;-71
2023/07/02 08:14:14;;;;;;;6.90;3.80;;;;;;;20.67;64.33;99129.56;5133656;27;20276;-68
2023/07/02 08:16:42;;;;;;;6.47;3.83;;;;;;;20.68;64.71;99143.47;5135262;27;20208;-69
2023/07/02 08:19:10;;;;;;;5.15;3.75;;;;;;;20.75;64.71;99145.56;5132566;27;20278;-70
2023/07/02 08:21:38;;;;;;;5.70;3.40;;;;;;;20.87;64.83;99138.66;5130318;27;20290;-70
2023/07/02 08:24:07;;;;;;;7.75;3.50;;;;;;;21.01;64.17;99132.47;5132836;27;20554;-69
2023/07/02 08:26:35;;;;;;;4.70;3.25;;;;;;;21.09;62.78;99140.63;5125775;27;20281;-70
2023/07/02 08:29:03;;;;;;;5.10;3.88;;;;;;;21.02;62.50;99134.13;5128706;27;20295;-68
2023/07/02 08:31:32;;;;;;;3.70;3.40;;;;;;;20.95;63.18;99139.00;5132853;27;20199;-69
2023/07/02 08:34:00;;;;;;;4.28;3.63;;;;;;;20.94;63.26;99139.91;5132546;27;20199;-67
2023/07/02 08:36:29;;;;;;;4.65;3.40;;;;;;;20.95;63.33;99143.38;5129763;27;21169;-68
2023/07/02 08:38:57;;;;;;;4.20;3.80;;;;;;;20.85;63.71;99151.03;5138168;27;20231;-69
2023/07/02 08:41:25;;;;;;;5.20;3.53;;;;;;;20.79;63.85;99143.59;5128717;27;20203;-69
2023/07/02 08:43:56;;;;;;;4.78;3.55;;;;;;;20.71;63.99;99151.97;5131636;27;20207;-68
2023/07/02 08:46:24;;;;;;;3.90;3.50;;;;;;;20.55;64.94;99151.34;5136188;27;20624;-68
2023/07/02 08:48:54;;;;;;;3.80;3.40;;;;;;;20.51;65.29;99155.09;5134961;27;20282;-68
2023/07/02 08:51:22;;;;;;;5.63;3.28;;;;;;;20.50;65.30;99145.53;5128411;27;20199;-68
2023/07/02 08:53:50;;;;;;;4.85;3.65;;;;;;;20.52;65.15;99154.16;5129968;27;20206;-68
2023/07/02 08:56:18;;;;;;;3.60;3.25;;;;;;;20.50;65.37;99143.75;5128778;27;20207;-65
2023/07/02 08:58:47;;;;;;;3.80;3.40;;;;;;;20.50;65.21;99153.41;5131852;27;20206;-64
2023/07/02 09:01:15;;;;;;;3.40;3.10;;;;;;;20.43;65.36;99152.09;5128817;27;20194;-68
2023/07/02 09:03:43;;;;;;;5.55;3.20;;;;;;;20.38;65.38;99164.66;5131056;27;20323;-66
2023/07/02 09:06:13;;;;;;;2.92;2.63;;;;;;;20.35;65.61;99162.22;5131723;27;20207;-65
2023/07/02 09:08:41;;;;;;;3.00;2.75;;;;;;;20.39;65.49;99153.25;5129570;27;20204;-66
2023/07/02 09:11:11;;;;;;;4.18;3.20;;;;;;;20.42;65.81;99153.03;5130164;27;20588;-66
2023/07/02 09:13:46;;;;;;;4.00;3.60;;;;;;;20.50;65.56;99164.69;5132228;27;20299;-67
2023/07/02 09:16:26;;;;;;;3.67;3.38;;;;;;;20.50;65.43;99163.88;5129882;27;20273;-68
2023/07/02 09:19:00;;;;;;;3.55;3.17;;;;;;;20.52;65.20;99159.38;5130192;27;20195;-66
2023/07/02 09:21:39;;;;;;;4.40;3.35;;;;;;;20.56;65.34;99163.47;5128492;27;20207;-69
2023/07/02 09:24:15;;;;;;;3.55;3.25;;;;;;;20.56;65.43;99167.88;5132932;28;20637;-69
2023/07/02 09:26:44;;;;;;;3.38;3.00;;;;;;;20.64;64.82;99169.03;5130023;27;20286;-68
2023/07/02 09:29:13;;;;;;;4.05;3.72;;;;;;;20.63;64.79;99156.88;5136732;27;20206;-69
2023/07/02 09:31:46;;;;;;;3.70;3.03;;;;;;;20.72;64.63;99176.34;5126117;27;20199;-67
2023/07/02 09:34:36;;;;;;;3.60;3.30;;;;;;;20.73;64.30;99173.66;5135672;27;20285;-68
2023/07/02 09:37:06;;;;;;;3.35;3.05;;;;;;;20.69;64.47;99176.56;5138231;27;20203;-67
2023/07/02 09:39:36;;;;;;;3.58;3.28;;;;;;;20.67;64.14;99173.22;5131370;27;20239;-69
2023/07/02 09:42:07;;;;;;;3.15;2.80;;;;;;;20.62;64.81;99175.28;5127645;27;20203;-70
2023/07/02 09:44:36;;;;;;;4.40;4.00;;;;;;;20.65;64.89;99178.53;5133259;27;20218;-69
2023/07/02 09:47:06;;;;;;;3.42;3.13;;;;;;;20.72;64.99;99173.75;5133605;27;20200;-71
2023/07/02 09:49:35;;;;;;;3.38;3.08;;;;;;;21.05;64.46;99178.47;5132719;27;20293;-70
2023/07/02 09:52:06;;;;;;;3.08;2.78;;;;;;;21.52;62.57;99174.34;5136177;27;20218;-68
2023/07/02 09:54:35;;;;;;;3.20;2.78;;;;;;;21.94;61.23;99178.31;5132211;27;20278;-70
2023/07/02 09:57:04;;;;;;;3.70;2.85;;;;;;;22.32;59.42;99171.25;5128465;27;20226;-70
2023/07/02 09:59:32;;;;;;;3.13;2.10;;;;;;;22.54;57.93;99162.63;5134351;27;20211;-69
2023/07/02 10:02:00;;;;;;;2.60;2.40;;;;;;;22.93;57.13;99161.38;5131439;27;20725;-70
2023/07/02 10:04:29;;;;;;;4.70;2.38;;;;;;;23.22;54.98;99153.03;5135350;27;20243;-69
2023/07/02 10:06:58;;;;;;;3.63;2.38;;;;;;;23.33;54.33;99147.78;5135621;27;20737;-69
2023/07/02 10:09:38;;;;;;;2.40;2.20;;;;;;;23.47;54.27;99141.44;5131403;27;20624;-70
2023/07/02 10:12:17;;;;;;;3.35;2.13;;;;;;;23.65;53.84;99141.78;5132499;27;20213;-69
2023/07/02 10:14:46;;;;;;;2.15;1.63;;;;;;;23.96;53.46;99140.16;5135917;27;20671;-69
2023/07/02 10:17:27;;;;;;;2.95;1.92;;;;;;;24.99;50.96;99133.25;5131693;27;20213;-73
2023/07/02 10:19:59;;;;;;;2.03;1.40;;;;;;;26.57;46.19;99131.63;5124538;27;20259;-73
2023/07/02 10:22:28;;;;;;;3.17;1.70;;;;;;;27.03;43.46;99128.16;5131930;27;20211;-70
2023/07/02 10:24:59;;;;;;;1.65;1.52;;;;;;;27.05;43.11;99122.72;5133212;27;20226;-70
2023/07/02 10:27:36;;;;;;;1.55;1.45;;;;;;;27.01;43.74;99142.47;5132789;27;20208;-70
2023/07/02 10:30:05;;;;;;;2.10;1.48;;;;;;;26.98;44.04;99138.31;5122247;27;20215;-69
2023/07/02 10:32:34;;;;;;;2.92;1.58;;;;;;;26.96;44.01;99130.53;5130247;27;20200;-70
2023/07/02 10:35:14;;;;;;;2.35;1.50;;;;;;;27.52;42.28;99133.22;5130843;27;20210;-68
2023/07/02 10:37:42;;;;;;;2.88;1.90;;;;;;;27.59;41.70;99116.59;5133219;27;20645;-69
2023/07/02 10:40:13;;;;;;;2.40;1.65;;;;;;;27.20;41.96;99130.03;5129071;27;20698;-70
2023/07/02 10:42:48;;;;;;;1.40;1.30;;;;;;;26.60;43.85;99136.63;5132263;27;20321;-71
2023/07/02 10:45:17;;;;;;;2.15;1.75;;;;;;;25.98;44.68;99138.72;5129559;27;20247;-69
2023/07/02 10:47:46;;;;;;;1.77;1.42;;;;;;;25.01;46.85;99123.44;5128092;27;20565;-69
2023/07/02 10:50:17;;;;;;;2.03;1.55;;;;;;;24.15;49.90;99135.03;5134788;27;20741;-68
2023/07/02 10:52:46;;;;;;;1.77;1.67;;;;;;;23.58;51.52;99131.75;5132501;27;20199;-68
2023/07/02 10:55:22;;;;;;;3.58;1.88;;;;;;;23.14;53.42;99135.25;5129618;27;20202;-69
2023/07/02 10:58:02;;;;;;;2.67;1.92;;;;;;;22.81;53.85;99138.66;5130383;27;20650;-64
2023/07/02 11:00:31;;;;;;;2.53;1.70;;;;;;;22.49;55.05;99144.56;5128894;27;20199;-62
2023/07/02 11:02:59;;;;;;;3.03;1.55;;;;;;;22.28;55.78;99141.78;5127382;27;20195;-62
2023/07/02 11:05:27;;;;;;;1.75;1.65;;;;;;;22.15;56.56;99147.06;5130561;27;20649;-65
2023/07/02 11:08:09;;;;;;;3.17;1.60;;;;;;;21.92;57.33;99153.16;5129875;27;20221;-65
2023/07/02 11:10:38;;;;;;;5.25;2.00;;;;;;;21.73;59.20;99161.50;5130407;27;20286;-64
2023/07/02 11:13:13;;;;;;;6.30;2.20;;;;;;;21.45;62.49;99162.63;5133007;27;20289;-65
2023/07/02 11:15:42;;;;;;;1.92;1.83;;;;;;;21.21;63.62;99168.63;5128849;27;20193;-64
2023/07/02 11:18:11;;;;;;;10.68;5.30;;;;;;;21.04;64.81;99186.44;5131285;27;20681;-65
2023/07/02 11:20:40;;;;;;;3.63;2.55;;;;;;;20.91;66.30;99189.03;5125225;27;20298;-63
2023/07/02 11:23:18;;;;;;;4.10;2.00;;;;;;;20.81;67.73;99193.25;5128617;27;20210;-63
2023/07/02 11:25:58;;;;;;;2.42;1.80;;;;;;;20.73;68.42;99186.75;5126545;27;20226;-70
2023/07/02 11:28:28;;;;;;;5.15;2.10;;;;;;;20.78;68.50;99182.97;5127940;27;20710;-65
2023/07/02 11:30:56;;;;;;;1.83;1.52;;;;;;;20.93;68.13;99181.94;5126836;27;20203;-66
2023/07/02 11:33:34;;;;;;;5.63;2.00;;;;;;;21.18;67.99;99175.84;5130900;27;20559;-66
2023/07/02 11:36:02;;;;;;;3.30;2.33;;;;;;;21.35;67.97;99183.38;5133648;27;20252;-64